Time;durP1;ratioP1;P1;durP2;ratioP2;P2;SDS_P1;SDS_P2;PMS_P1;PMS_P2;Temp;Humidity;BMP_temperature;BMP_pressure;BME280_temperature;BME280_humidity;BME280_pressure;Samples;Min_cycle;Max_cycle;Signal;HPM_P1;HPM_P2
2022/01/07 00:02:18;;;;;;;53.60;24.50;;;;;;;-1.92;71.87;100459.34;130308;1267;108783;-76
2022/01/07 00:05:25;;;;;;;136.30;58.70;;;;;;;-1.96;71.82;100463.34;130314;1267;108784;-75
2022/01/07 00:08:31;;;;;;;62.70;26.80;;;;;;;-2.01;71.75;100464.77;130280;1267;110049;-75
2022/01/07 00:11:36;;;;;;;74.00;28.60;;;;;;;-2.02;71.93;100467.10;130350;1267;108806;-76
2022/01/07 00:14:42;;;;;;;325.20;124.60;;;;;;;-2.07;71.93;100470.78;130283;1267;108647;-76
2022/01/07 00:17:47;;;;;;;116.60;44.10;;;;;;;-2.11;71.96;100473.59;130324;1267;108748;-76
2022/01/07 00:20:53;;;;;;;185.20;71.20;;;;;;;-2.16;71.98;100475.36;130448;1267;108830;-77
2022/01/07 00:23:59;;;;;;;106.70;40.30;;;;;;;-2.20;71.70;100475.05;130406;1267;107426;-77
2022/01/07 00:27:05;;;;;;;49.10;20.80;;;;;;;-2.23;72.01;100474.30;130295;1266;108729;-76
2022/01/07 00:30:13;;;;;;;48.90;19.30;;;;;;;-2.25;71.83;100470.54;130276;1266;108717;-76
2022/01/07 00:33:18;;;;;;;36.40;13.10;;;;;;;-2.29;71.92;100473.16;130335;1267;107785;-76
2022/01/07 00:36:24;;;;;;;50.20;20.50;;;;;;;-2.32;71.99;100468.24;130323;1267;108740;-76
2022/01/07 00:39:29;;;;;;;43.50;18.90;;;;;;;-2.31;71.98;100465.55;130010;1267;107421;-75
2022/01/07 00:42:35;;;;;;;73.70;33.00;;;;;;;-2.26;71.92;100466.23;130211;1267;108699;-76
2022/01/07 00:45:40;;;;;;;33.40;17.50;;;;;;;-2.18;71.91;100460.98;130379;1267;108837;-75
2022/01/07 00:48:45;;;;;;;46.10;26.00;;;;;;;-2.10;71.61;100465.88;130369;1267;108757;-75
2022/01/07 00:51:52;;;;;;;23.70;11.60;;;;;;;-2.05;71.73;100475.61;130340;1267;108867;-75
2022/01/07 00:54:57;;;;;;;21.10;10.20;;;;;;;-2.02;71.62;100481.58;130322;1267;108700;-76
2022/01/07 00:58:02;;;;;;;38.20;18.70;;;;;;;-2.05;71.62;100483.45;130335;1267;108915;-76
2022/01/07 01:01:08;;;;;;;60.80;31.60;;;;;;;-2.08;71.56;100486.36;130304;1267;108737;-75
2022/01/07 01:04:14;;;;;;;105.70;53.30;;;;;;;-2.13;71.55;100489.55;130281;1267;108981;-76
2022/01/07 01:07:20;;;;;;;44.50;21.40;;;;;;;-2.18;71.49;100486.27;130290;1267;109008;-75
2022/01/07 01:10:26;;;;;;;93.90;43.80;;;;;;;-2.22;71.74;100485.57;130044;1267;108641;-75
2022/01/07 01:13:32;;;;;;;37.80;17.70;;;;;;;-2.26;71.63;100481.21;130416;1267;108911;-75
2022/01/07 01:16:39;;;;;;;53.10;24.30;;;;;;;-2.30;71.73;100481.58;130354;1266;108967;-78
2022/01/07 01:19:44;;;;;;;72.30;32.30;;;;;;;-2.37;71.74;100481.30;130343;1267;107289;-77
2022/01/07 01:22:50;;;;;;;115.30;48.20;;;;;;;-2.42;71.38;100480.12;130302;1267;107789;-78
2022/01/07 01:25:56;;;;;;;138.40;54.00;;;;;;;-2.48;71.73;100478.84;130282;1267;108789;-79
2022/01/07 01:29:01;;;;;;;97.40;40.30;;;;;;;-2.51;71.66;100477.04;130251;1267;108730;-75
2022/01/07 01:32:08;;;;;;;91.50;36.80;;;;;;;-2.52;71.69;100478.83;130320;1267;108903;-75
2022/01/07 01:35:14;;;;;;;102.30;42.70;;;;;;;-2.56;71.81;100484.75;130299;1267;108557;-79
2022/01/07 01:38:20;;;;;;;63.20;25.50;;;;;;;-2.60;71.56;100485.43;130321;1267;108504;-77
2022/01/07 01:41:25;;;;;;;153.90;55.50;;;;;;;-2.64;71.83;100482.14;130314;1267;108675;-77
2022/01/07 01:44:32;;;;;;;249.50;90.10;;;;;;;-2.66;72.04;100482.90;130351;1267;108688;-78
2022/01/07 01:47:37;;;;;;;79.30;28.90;;;;;;;-2.64;71.90;100484.71;130286;1266;106987;-77
2022/01/07 01:50:43;;;;;;;78.70;30.90;;;;;;;-2.57;71.81;100487.55;130319;1267;108971;-79
2022/01/07 01:53:48;;;;;;;64.70;24.50;;;;;;;-2.48;71.69;100489.45;130310;1267;108882;-77
2022/01/07 01:56:54;;;;;;;70.40;24.00;;;;;;;-2.40;71.64;100486.67;130284;1267;108674;-77
2022/01/07 01:59:59;;;;;;;92.10;32.60;;;;;;;-2.33;71.61;100485.35;130309;1267;108822;-78
2022/01/07 02:03:05;;;;;;;171.80;59.20;;;;;;;-2.33;71.43;100486.89;130280;1267;108685;-78
2022/01/07 02:06:11;;;;;;;86.00;32.10;;;;;;;-2.35;71.48;100489.98;130237;1267;108848;-77
2022/01/07 02:09:18;;;;;;;65.60;25.50;;;;;;;-2.39;71.56;100494.10;130352;1267;108781;-77
2022/01/07 02:12:24;;;;;;;113.40;43.90;;;;;;;-2.41;71.53;100494.87;130289;1267;108767;-77
2022/01/07 02:15:29;;;;;;;44.20;18.00;;;;;;;-2.44;71.58;100495.39;130291;1266;108967;-77
2022/01/07 02:18:36;;;;;;;41.30;18.00;;;;;;;-2.47;71.67;100494.63;130276;1265;108977;-80
2022/01/07 02:21:41;;;;;;;173.30;67.80;;;;;;;-2.49;71.56;100494.55;130338;1267;108821;-77
2022/01/07 02:24:47;;;;;;;190.90;73.00;;;;;;;-2.53;71.63;100495.41;130279;1267;108813;-76
2022/01/07 02:27:54;;;;;;;149.30;57.60;;;;;;;-2.57;71.69;100490.02;130320;1267;108886;-76
2022/01/07 02:31:00;;;;;;;102.80;39.60;;;;;;;-2.62;71.82;100491.61;130324;1267;106856;-76
2022/01/07 02:34:05;;;;;;;117.40;41.20;;;;;;;-2.67;71.86;100493.03;130287;1267;109007;-75
2022/01/07 02:37:12;;;;;;;96.10;36.20;;;;;;;-2.70;71.89;100492.80;130314;1267;108815;-76
2022/01/07 02:40:18;;;;;;;109.70;42.30;;;;;;;-2.73;71.87;100491.52;130311;1267;108670;-80
2022/01/07 02:43:23;;;;;;;89.00;35.10;;;;;;;-2.77;71.73;100491.50;130257;1267;108727;-77
2022/01/07 02:46:29;;;;;;;44.40;19.00;;;;;;;-2.81;71.96;100492.73;130294;1267;108744;-77
2022/01/07 02:49:34;;;;;;;30.40;14.40;;;;;;;-2.83;71.93;100500.30;130303;1267;108964;-74
2022/01/07 02:52:40;;;;;;;24.90;11.90;;;;;;;-2.84;71.94;100505.91;130245;1267;108660;-75
2022/01/07 02:55:45;;;;;;;17.60;7.80;;;;;;;-2.83;72.02;100505.17;130315;1267;108693;-76
2022/01/07 02:58:51;;;;;;;37.80;18.30;;;;;;;-2.79;72.06;100506.19;130259;1267;109053;-76
2022/01/07 03:12:08;;;;;;;17.40;7.80;;;;;;;-2.59;71.62;100492.35;130275;1267;109149;-77
2022/01/07 03:15:15;;;;;;;15.90;6.40;;;;;;;-2.63;71.68;100496.85;130321;1267;110095;-76
2022/01/07 03:18:21;;;;;;;15.20;7.00;;;;;;;-2.67;71.82;100505.06;130309;1267;108627;-76
2022/01/07 03:21:26;;;;;;;16.50;7.30;;;;;;;-2.75;71.50;100514.95;130327;1267;108849;-75
2022/01/07 03:24:32;;;;;;;16.30;6.30;;;;;;;-2.80;71.75;100525.06;130321;1267;110047;-79
2022/01/07 03:27:38;;;;;;;14.50;6.50;;;;;;;-2.86;71.62;100523.40;130319;1267;108823;-77
2022/01/07 03:30:44;;;;;;;12.80;5.90;;;;;;;-2.92;71.55;100520.00;130336;1267;108799;-76
2022/01/07 03:33:49;;;;;;;15.30;6.70;;;;;;;-3.02;71.70;100513.56;130297;1267;109045;-76
2022/01/07 03:36:54;;;;;;;19.20;6.70;;;;;;;-3.08;71.69;100513.45;130326;1267;109003;-76
2022/01/07 03:40:00;;;;;;;14.70;6.80;;;;;;;-3.13;71.71;100515.73;130306;1267;108634;-76
2022/01/07 03:43:06;;;;;;;14.20;7.00;;;;;;;-3.18;71.83;100513.48;130288;1267;108853;-76
2022/01/07 03:46:11;;;;;;;15.40;6.80;;;;;;;-3.22;71.85;100517.12;130280;1267;108716;-76
2022/01/07 03:49:16;;;;;;;17.60;7.00;;;;;;;-3.25;71.80;100520.58;130293;1267;108729;-76
2022/01/07 03:52:22;;;;;;;17.10;6.80;;;;;;;-3.30;71.63;100519.69;130268;1267;107822;-76
2022/01/07 03:55:30;;;;;;;17.30;7.00;;;;;;;-3.34;71.79;100519.67;130196;1267;108798;-76
2022/01/07 03:58:35;;;;;;;21.40;6.80;;;;;;;-3.39;71.66;100518.83;130174;1267;109137;-76
2022/01/07 04:01:41;;;;;;;15.70;6.90;;;;;;;-3.47;71.61;100515.63;130315;1267;108752;-77
2022/01/07 04:04:47;;;;;;;15.50;7.20;;;;;;;-3.52;71.86;100511.48;130345;1267;107243;-75
2022/01/07 04:07:53;;;;;;;18.40;7.40;;;;;;;-3.55;71.71;100509.84;130299;1267;108854;-75
2022/01/07 04:10:58;;;;;;;14.40;6.40;;;;;;;-3.59;71.74;100511.89;130285;1267;108721;-76
2022/01/07 04:14:04;;;;;;;17.10;6.90;;;;;;;-3.61;71.67;100516.50;130270;1267;108875;-77
2022/01/07 04:17:09;;;;;;;14.90;6.30;;;;;;;-3.59;71.83;100516.08;130335;1267;106768;-75
2022/01/07 04:20:17;;;;;;;17.60;6.50;;;;;;;-3.53;71.94;100514.66;130299;1267;108835;-76
2022/01/07 04:23:22;;;;;;;18.80;7.40;;;;;;;-3.46;71.93;100516.33;130328;1267;108827;-77
2022/01/07 04:26:27;;;;;;;18.90;7.90;;;;;;;-3.42;71.83;100513.52;130284;1267;109003;-77
2022/01/07 04:29:33;;;;;;;18.90;7.80;;;;;;;-3.39;72.01;100506.62;130300;1267;108724;-76
2022/01/07 04:32:38;;;;;;;17.60;7.40;;;;;;;-3.37;71.89;100500.48;130314;1266;108733;-75
2022/01/07 04:35:45;;;;;;;20.00;8.00;;;;;;;-3.41;71.78;100497.85;130292;1267;109137;-77
2022/01/07 04:38:50;;;;;;;20.60;8.10;;;;;;;-3.44;71.87;100491.52;130277;1267;108788;-76
2022/01/07 04:41:57;;;;;;;42.40;9.60;;;;;;;-3.46;71.83;100488.84;130307;1267;108764;-78
2022/01/07 04:45:03;;;;;;;16.30;7.40;;;;;;;-3.47;71.98;100489.22;130337;1267;108961;-77
2022/01/07 04:48:10;;;;;;;23.20;9.90;;;;;;;-3.51;71.85;100496.85;130274;1267;107445;-79
2022/01/07 04:51:15;;;;;;;21.90;8.90;;;;;;;-3.55;71.87;100500.80;130484;1267;108655;-78
2022/01/07 04:54:20;;;;;;;19.30;8.60;;;;;;;-3.59;72.22;100500.09;130342;1267;107929;-76
2022/01/07 04:57:26;;;;;;;17.40;7.60;;;;;;;-3.61;72.14;100494.93;130332;1265;108829;-77
2022/01/07 05:00:31;;;;;;;21.10;9.00;;;;;;;-3.60;72.00;100495.61;130354;1267;107545;-76
2022/01/07 05:03:37;;;;;;;18.60;7.40;;;;;;;-3.60;72.20;100490.57;130319;1267;108573;-77
2022/01/07 05:06:47;;;;;;;16.40;7.40;;;;;;;-3.61;72.34;100489.55;130392;1267;108563;-78
2022/01/07 05:09:52;;;;;;;21.90;9.10;;;;;;;-3.61;72.23;100488.88;130280;1267;108530;-77
2022/01/07 05:12:58;;;;;;;22.30;8.10;;;;;;;-3.59;72.47;100491.06;130311;1267;108610;-77
2022/01/07 05:16:03;;;;;;;20.30;8.50;;;;;;;-3.55;72.44;100487.58;130282;1267;108576;-77
2022/01/07 05:19:09;;;;;;;48.10;18.70;;;;;;;-3.45;72.47;100484.45;130302;1267;109208;-77
2022/01/07 05:22:15;;;;;;;48.10;19.00;;;;;;;-3.37;72.44;100484.81;130347;1267;108967;-77
2022/01/07 05:25:21;;;;;;;156.50;45.20;;;;;;;-3.24;72.59;100487.63;130349;1267;107835;-77
2022/01/07 05:28:26;;;;;;;39.70;15.30;;;;;;;-3.07;72.61;100481.40;130417;1267;108974;-76
2022/01/07 05:31:32;;;;;;;75.20;28.90;;;;;;;-2.90;72.44;100475.86;130193;1267;109012;-77
2022/01/07 05:34:37;;;;;;;38.30;15.50;;;;;;;-2.78;72.63;100472.92;130189;1267;108987;-77
2022/01/07 05:37:43;;;;;;;129.50;42.20;;;;;;;-2.68;72.28;100469.92;130294;1267;107549;-76
2022/01/07 05:40:48;;;;;;;80.60;29.40;;;;;;;-2.62;72.39;100467.23;130341;1267;108951;-77
2022/01/07 05:43:53;;;;;;;271.70;77.90;;;;;;;-2.60;72.52;100463.30;130317;1267;108926;-75
2022/01/07 05:46:59;;;;;;;164.00;52.10;;;;;;;-2.60;72.42;100465.38;130321;1267;108647;-75
2022/01/07 05:50:05;;;;;;;73.70;26.60;;;;;;;-2.61;72.29;100466.29;130301;1267;108843;-77
2022/01/07 05:53:11;;;;;;;52.60;25.00;;;;;;;-2.64;72.37;100466.11;130315;1267;108569;-76
2022/01/07 05:56:16;;;;;;;24.80;11.20;;;;;;;-2.67;72.26;100465.86;130291;1267;108962;-76
2022/01/07 05:59:22;;;;;;;20.90;7.40;;;;;;;-2.70;72.44;100467.73;130319;1267;108886;-76
2022/01/07 06:02:27;;;;;;;18.90;7.40;;;;;;;-2.74;72.52;100477.45;130307;1267;108821;-76
2022/01/07 06:05:33;;;;;;;19.90;7.30;;;;;;;-2.78;72.55;100481.80;130298;1267;108784;-77
2022/01/07 06:08:38;;;;;;;22.10;8.10;;;;;;;-2.85;72.58;100474.42;130323;1267;108704;-76
2022/01/07 06:11:45;;;;;;;18.40;7.00;;;;;;;-2.91;72.76;100473.09;130262;1267;108805;-76
2022/01/07 06:14:50;;;;;;;16.60;5.90;;;;;;;-2.93;72.80;100474.39;130325;1267;108706;-76
2022/01/07 06:17:56;;;;;;;13.90;5.50;;;;;;;-2.91;72.88;100472.77;130370;1267;107682;-77
2022/01/07 06:21:01;;;;;;;20.80;6.40;;;;;;;-2.88;72.98;100473.31;130309;1267;108651;-77
2022/01/07 06:24:08;;;;;;;25.40;9.40;;;;;;;-2.82;72.92;100472.21;130316;1267;109050;-77
2022/01/07 06:27:14;;;;;;;21.00;8.10;;;;;;;-2.76;72.77;100475.30;130329;1267;108792;-76
2022/01/07 06:30:19;;;;;;;16.00;7.40;;;;;;;-2.71;72.89;100479.42;130210;1267;108927;-76
2022/01/07 06:33:25;;;;;;;19.70;7.80;;;;;;;-2.69;72.80;100475.54;130155;1267;108988;-75
2022/01/07 06:36:30;;;;;;;27.70;9.10;;;;;;;-2.67;72.83;100472.84;130301;1267;108736;-75
2022/01/07 06:39:36;;;;;;;32.40;11.90;;;;;;;-2.65;72.91;100469.09;130307;1267;108044;-76
2022/01/07 06:42:42;;;;;;;28.40;11.20;;;;;;;-2.63;72.85;100467.27;130324;1267;108637;-76
2022/01/07 06:45:47;;;;;;;28.00;10.90;;;;;;;-2.64;72.76;100476.19;130385;1267;108664;-76
2022/01/07 06:48:52;;;;;;;32.40;12.00;;;;;;;-2.64;72.87;100480.02;130315;1267;107279;-77
2022/01/07 06:51:58;;;;;;;25.50;10.40;;;;;;;-2.64;72.88;100477.23;130299;1267;108880;-77
2022/01/07 06:55:04;;;;;;;24.60;10.50;;;;;;;-2.64;73.08;100476.02;130294;1267;108992;-75
2022/01/07 06:58:10;;;;;;;21.60;10.40;;;;;;;-2.64;72.86;100477.91;130312;1267;107657;-75
2022/01/07 07:01:15;;;;;;;17.60;8.50;;;;;;;-2.64;73.06;100483.48;130275;1267;109030;-74
2022/01/07 07:04:20;;;;;;;18.80;7.50;;;;;;;-2.64;73.09;100485.61;130290;1267;108596;-74
2022/01/07 07:07:26;;;;;;;19.70;9.40;;;;;;;-2.60;73.14;100488.23;130343;1267;108233;-73
2022/01/07 07:10:31;;;;;;;19.60;8.40;;;;;;;-2.52;73.13;100492.60;130304;1267;106918;-74
2022/01/07 07:13:37;;;;;;;23.40;10.40;;;;;;;-2.40;73.19;100493.12;130401;1267;109148;-73
2022/01/07 07:16:43;;;;;;;24.00;10.90;;;;;;;-2.21;73.41;100493.02;130281;1267;108659;-74
2022/01/07 07:19:49;;;;;;;18.50;7.90;;;;;;;-2.00;73.36;100488.10;130337;1267;107735;-74
2022/01/07 07:22:54;;;;;;;19.60;8.90;;;;;;;-1.85;73.15;100489.54;130323;1267;108630;-74
2022/01/07 07:26:00;;;;;;;41.80;14.90;;;;;;;-1.74;73.19;100489.05;130311;1267;109229;-73
2022/01/07 07:29:05;;;;;;;22.40;8.50;;;;;;;-1.65;73.12;100493.54;130271;1267;108690;-72
2022/01/07 07:32:11;;;;;;;20.10;9.90;;;;;;;-1.60;72.95;100491.19;130303;1267;107159;-73
2022/01/07 07:38:55;;;;;;;39.80;16.00;;;;;;;-1.41;73.14;100494.02;129884;1273;108981;-74
2022/01/07 07:42:00;;;;;;;52.90;21.10;;;;;;;-1.37;72.97;100489.96;129924;1273;108747;-75
2022/01/07 07:45:12;;;;;;;161.90;62.30;;;;;;;-1.33;72.97;100493.62;130291;1267;108838;-74
2022/01/07 07:48:17;;;;;;;80.80;29.50;;;;;;;-1.30;72.76;100492.80;130268;1267;107561;-73
2022/01/07 07:51:23;;;;;;;55.20;23.10;;;;;;;-1.29;72.89;100486.29;130192;1267;108412;-72
2022/01/07 07:54:28;;;;;;;33.10;13.30;;;;;;;-1.29;72.91;100480.54;130233;1267;108637;-73
2022/01/07 07:57:34;;;;;;;55.30;25.80;;;;;;;-1.31;72.91;100483.23;130319;1267;107347;-71
2022/01/07 08:00:39;;;;;;;32.80;15.10;;;;;;;-1.30;72.77;100481.11;130284;1267;107123;-72
2022/01/07 08:03:45;;;;;;;42.10;24.50;;;;;;;-1.29;72.78;100480.02;130248;1267;108842;-72
2022/01/07 08:06:51;;;;;;;23.10;11.10;;;;;;;-1.28;72.74;100488.15;130269;1267;108768;-72
2022/01/07 08:09:56;;;;;;;185.60;41.60;;;;;;;-1.21;72.87;100489.22;130335;1267;108950;-73
2022/01/07 08:13:27;;;;;;;45.10;13.40;;;;;;;-1.09;72.96;100492.49;130300;1267;108933;-73
2022/01/07 08:16:33;;;;;;;63.70;19.70;;;;;;;-0.93;72.66;100486.66;130313;1268;108625;-75
2022/01/07 08:19:38;;;;;;;114.40;33.50;;;;;;;-0.80;72.45;100482.36;130288;1268;108448;-75
2022/01/07 08:22:44;;;;;;;128.10;40.20;;;;;;;-0.70;72.32;100477.89;130300;1268;108510;-73
2022/01/07 08:25:50;;;;;;;45.00;17.50;;;;;;;-0.64;72.20;100480.02;130327;1267;107638;-73
2022/01/07 08:28:59;;;;;;;75.30;37.20;;;;;;;-0.59;72.32;100485.71;130372;1268;108813;-74
2022/01/07 08:35:31;;;;;;;84.40;40.00;;;;;;;-0.55;71.84;100492.71;130338;1268;108734;-74
2022/01/07 08:38:37;;;;;;;30.50;13.40;;;;;;;-0.54;71.66;100493.70;130325;1267;107394;-73
2022/01/07 08:41:43;;;;;;;28.90;14.30;;;;;;;-0.54;71.71;100496.30;130325;1267;110177;-74
2022/01/07 08:44:51;;;;;;;30.80;14.00;;;;;;;-0.52;71.59;100494.63;130316;1267;108394;-74
2022/01/07 08:47:58;;;;;;;34.30;17.50;;;;;;;-0.50;71.53;100495.55;130241;1268;108574;-74
2022/01/07 08:51:04;;;;;;;24.30;11.50;;;;;;;-0.46;71.55;100494.84;130330;1267;108704;-73
2022/01/07 08:54:10;;;;;;;17.60;8.40;;;;;;;-0.43;71.38;100489.98;130308;1268;108855;-73
2022/01/07 08:57:15;;;;;;;18.90;9.00;;;;;;;-0.41;71.33;100494.92;130336;1267;108696;-74
2022/01/07 09:00:21;;;;;;;16.60;8.20;;;;;;;-0.40;71.13;100489.83;130188;1268;107129;-73
2022/01/07 09:03:27;;;;;;;16.60;7.80;;;;;;;-0.37;71.19;100493.05;130130;1267;108828;-72
2022/01/07 09:06:33;;;;;;;44.90;25.10;;;;;;;-0.37;70.93;100486.38;130258;1268;108754;-74
2022/01/07 09:09:39;;;;;;;23.40;12.60;;;;;;;-0.39;70.97;100485.77;130359;1267;108860;-74
2022/01/07 09:12:46;;;;;;;27.20;14.60;;;;;;;-0.41;70.96;100481.67;130311;1267;108736;-73
2022/01/07 09:15:52;;;;;;;46.10;24.80;;;;;;;-0.43;70.86;100480.86;130382;1268;108746;-74
2022/01/07 09:18:57;;;;;;;42.20;22.30;;;;;;;-0.36;70.91;100480.25;130281;1267;108807;-73
2022/01/07 09:22:02;;;;;;;57.40;27.10;;;;;;;-0.31;71.01;100478.58;130370;1267;109029;-74
2022/01/07 09:25:09;;;;;;;37.90;18.90;;;;;;;-0.28;70.82;100477.86;130367;1268;109010;-74
2022/01/07 09:28:14;;;;;;;36.50;17.90;;;;;;;-0.24;70.66;100472.05;130355;1267;108752;-73
2022/01/07 09:31:20;;;;;;;24.90;12.50;;;;;;;-0.20;70.53;100469.23;130304;1268;108839;-73
2022/01/07 09:34:25;;;;;;;29.80;16.20;;;;;;;-0.16;70.42;100471.69;130293;1268;108925;-73
2022/01/07 09:37:30;;;;;;;24.40;13.40;;;;;;;-0.12;70.65;100472.31;130304;1268;108875;-73
2022/01/07 09:40:36;;;;;;;18.10;8.50;;;;;;;-0.04;70.72;100477.36;130121;1268;107394;-73
2022/01/07 09:43:44;;;;;;;16.80;7.90;;;;;;;0.06;70.41;100479.11;130343;1268;108027;-73
2022/01/07 09:46:50;;;;;;;15.50;8.40;;;;;;;0.14;70.50;100479.17;130356;1268;106884;-73
2022/01/07 09:49:55;;;;;;;31.90;20.20;;;;;;;0.18;70.18;100481.10;130345;1267;108849;-76
2022/01/07 09:53:06;;;;;;;35.40;19.30;;;;;;;0.20;70.07;100483.61;130248;1268;108863;-78
2022/01/07 09:56:12;;;;;;;25.10;13.60;;;;;;;0.25;70.04;100477.73;130115;1268;106664;-76
2022/01/07 09:59:17;;;;;;;29.70;14.30;;;;;;;0.32;70.05;100475.59;130137;1268;109678;-76
2022/01/07 10:02:23;;;;;;;23.00;12.30;;;;;;;0.40;70.02;100474.48;130155;1268;108918;-75
2022/01/07 10:05:30;;;;;;;27.90;14.70;;;;;;;0.47;69.94;100468.34;130273;1268;108754;-75
2022/01/07 10:08:37;;;;;;;26.40;14.90;;;;;;;0.55;69.62;100461.07;130384;1268;108854;-79
2022/01/07 10:11:44;;;;;;;26.60;14.90;;;;;;;0.62;69.51;100458.27;130266;1268;108748;-75
2022/01/07 10:15:16;;;;;;;460.70;188.80;;;;;;;0.68;69.50;100454.59;130245;1268;108686;-72
2022/01/07 10:18:22;;;;;;;48.60;20.30;;;;;;;0.74;69.18;100454.08;130309;1268;108919;-73
2022/01/07 10:21:27;;;;;;;28.10;11.70;;;;;;;0.81;69.21;100453.71;130257;1268;108478;-72
2022/01/07 10:24:52;;;;;;;21.60;8.50;;;;;;;0.89;68.98;100449.38;130179;1268;108955;-75
2022/01/07 10:28:04;;;;;;;37.70;20.30;;;;;;;0.99;69.06;100442.52;130208;1268;108779;-73
2022/01/07 10:31:09;;;;;;;;;;;;;;;1.07;68.68;100443.27;130204;1268;108874;-72
2022/01/07 10:34:15;;;;;;;40.90;19.00;;;;;;;1.13;68.57;100441.88;130174;1268;106789;-72
2022/01/07 10:37:20;;;;;;;26.20;13.20;;;;;;;1.16;68.86;100439.07;130147;1268;108811;-73
2022/01/07 10:40:29;;;;;;;25.60;12.10;;;;;;;1.16;68.47;100434.52;130206;1268;108959;-72
2022/01/07 10:43:36;;;;;;;20.00;10.20;;;;;;;1.19;68.62;100432.47;130223;1268;108676;-73
2022/01/07 10:46:41;;;;;;;18.80;8.90;;;;;;;1.21;67.83;100425.55;130239;1268;108916;-72
2022/01/07 10:49:47;;;;;;;19.40;11.90;;;;;;;1.22;68.49;100423.00;130228;1268;108767;-72
2022/01/07 10:52:53;;;;;;;21.80;9.30;;;;;;;1.25;68.29;100421.09;130165;1268;107569;-73
2022/01/07 10:56:08;;;;;;;76.40;35.80;;;;;;;1.27;67.97;100414.80;130175;1268;108693;-73
2022/01/07 10:59:15;;;;;;;42.10;20.50;;;;;;;1.28;67.44;100415.27;130114;1270;107258;-74
2022/01/07 11:02:34;;;;;;;133.70;58.80;;;;;;;1.30;68.03;100417.10;130154;1268;108839;-73
2022/01/07 11:05:40;;;;;;;103.60;43.70;;;;;;;1.31;67.98;100422.98;130240;1268;109887;-72
2022/01/07 11:08:47;;;;;;;137.90;55.20;;;;;;;1.36;68.02;100426.04;130196;1268;108725;-73
2022/01/07 11:11:55;;;;;;;41.70;22.90;;;;;;;1.39;67.79;100425.13;130171;1268;108729;-73
2022/01/07 11:15:01;;;;;;;20.40;10.50;;;;;;;1.42;67.32;100422.34;130216;1267;108719;-74
2022/01/07 11:18:06;;;;;;;15.90;7.80;;;;;;;1.42;67.12;100419.57;130155;1268;108727;-73
2022/01/07 11:21:13;;;;;;;17.00;8.40;;;;;;;1.41;67.49;100412.60;130245;1268;107680;-71
2022/01/07 11:24:37;;;;;;;16.10;8.10;;;;;;;1.43;67.29;100412.65;130298;1268;108712;-72
2022/01/07 11:27:51;;;;;;;15.20;6.80;;;;;;;1.44;67.08;100416.24;130272;1268;110011;-73
2022/01/07 11:31:05;;;;;;;15.10;7.60;;;;;;;1.48;67.37;100416.56;130215;1268;108983;-73
2022/01/07 11:34:29;;;;;;;12.60;6.40;;;;;;;1.51;67.03;100415.48;130218;1268;108825;-73
2022/01/07 11:37:39;;;;;;;13.50;6.20;;;;;;;1.56;67.10;100410.79;130184;1268;108894;-73
2022/01/07 11:40:48;;;;;;;14.40;6.50;;;;;;;1.62;67.05;100412.40;130267;1268;108744;-74
2022/01/07 11:43:54;;;;;;;12.30;5.80;;;;;;;1.66;66.75;100407.42;130209;1268;107561;-74
2022/01/07 11:47:24;;;;;;;47.60;22.90;;;;;;;1.73;66.90;100404.58;130159;1268;108657;-73
2022/01/07 11:50:29;;;;;;;76.80;45.90;;;;;;;1.83;66.87;100404.67;130287;1268;108735;-73
2022/01/07 11:54:03;;;;;;;23.60;11.20;;;;;;;1.90;66.53;100403.00;130201;1267;108620;-73
2022/01/07 11:57:15;;;;;;;17.70;8.00;;;;;;;1.95;66.24;100399.85;129989;1268;108806;-72
2022/01/07 12:00:56;;;;;;;28.80;16.70;;;;;;;1.97;66.22;100395.05;130097;1268;108415;-74
2022/01/07 12:04:03;;;;;;;30.50;16.60;;;;;;;1.98;66.11;100391.48;130198;1268;108537;-73
2022/01/07 12:07:10;;;;;;;18.00;10.00;;;;;;;1.94;65.95;100383.76;130197;1268;107674;-74
2022/01/07 12:10:15;;;;;;;73.80;43.70;;;;;;;1.92;65.93;100385.11;130276;1268;109687;-72
2022/01/07 12:13:25;;;;;;;26.30;14.70;;;;;;;1.90;66.16;100386.29;130203;1268;108867;-74
2022/01/07 12:16:32;;;;;;;18.00;11.40;;;;;;;1.90;65.87;100386.11;130207;1268;106738;-73
2022/01/07 12:20:19;;;;;;;19.70;10.70;;;;;;;1.89;65.98;100376.20;130203;1268;108743;-74
2022/01/07 12:23:24;;;;;;;17.90;9.70;;;;;;;1.89;66.05;100367.65;130209;1268;108859;-72
2022/01/07 12:26:30;;;;;;;14.10;6.60;;;;;;;1.88;65.64;100365.77;130232;1268;108882;-72
2022/01/07 12:29:38;;;;;;;15.50;8.70;;;;;;;1.87;65.56;100355.27;130197;1268;108838;-73
2022/01/07 12:32:44;;;;;;;17.80;9.20;;;;;;;1.87;65.56;100356.16;130202;1268;108842;-73
2022/01/07 12:35:49;;;;;;;15.40;6.90;;;;;;;1.87;65.63;100349.88;130173;1268;108806;-73
2022/01/07 12:39:00;;;;;;;24.40;12.00;;;;;;;1.84;65.56;100352.83;130257;1268;107875;-73
2022/01/07 12:42:09;;;;;;;72.60;30.00;;;;;;;1.83;65.51;100350.42;130198;1268;109079;-73
2022/01/07 12:45:21;;;;;;;20.10;9.10;;;;;;;1.82;65.34;100347.14;130220;1268;108752;-73
2022/01/07 12:48:35;;;;;;;18.20;7.70;;;;;;;1.80;65.19;100348.17;130176;1268;108942;-74
2022/01/07 12:51:40;;;;;;;14.80;7.50;;;;;;;1.74;65.07;100346.59;130241;1268;108741;-72
2022/01/07 12:54:57;;;;;;;17.00;8.20;;;;;;;1.70;65.06;100343.67;130256;1268;108847;-73
2022/01/07 12:58:06;;;;;;;17.30;7.60;;;;;;;1.68;65.33;100337.52;130214;1268;108736;-72
2022/01/07 13:01:24;;;;;;;14.20;7.20;;;;;;;1.65;65.21;100336.63;130229;1268;108945;-74
2022/01/07 13:04:29;;;;;;;15.00;7.50;;;;;;;1.61;65.35;100333.39;130284;1268;108717;-75
2022/01/07 13:07:39;;;;;;;25.50;11.50;;;;;;;1.58;65.22;100341.09;130192;1268;108882;-73
2022/01/07 13:11:04;;;;;;;156.90;60.00;;;;;;;1.56;65.23;100340.88;130263;1268;108610;-73
2022/01/07 13:14:10;;;;;;;116.60;50.40;;;;;;;1.53;65.23;100338.55;130208;1268;108911;-72
2022/01/07 13:17:23;;;;;;;38.90;17.20;;;;;;;1.52;65.29;100339.34;130214;1268;108757;-74
2022/01/07 13:20:32;;;;;;;19.70;9.30;;;;;;;1.50;65.15;100341.92;130182;1268;106970;-73
2022/01/07 13:23:39;;;;;;;18.90;9.90;;;;;;;1.47;65.26;100341.22;130238;1268;108504;-72
2022/01/07 13:26:45;;;;;;;19.20;8.90;;;;;;;1.45;65.24;100336.48;130250;1268;108728;-73
2022/01/07 13:29:51;;;;;;;20.70;9.00;;;;;;;1.43;65.23;100331.52;130226;1268;108895;-73
2022/01/07 13:33:09;;;;;;;18.20;9.20;;;;;;;1.40;65.26;100325.73;130254;1268;108717;-73
2022/01/07 13:36:16;;;;;;;18.70;8.90;;;;;;;1.34;65.21;100327.15;130157;1268;108743;-73
2022/01/07 13:39:22;;;;;;;19.00;9.30;;;;;;;1.29;65.05;100327.05;130222;1268;108660;-73
2022/01/07 13:42:30;;;;;;;22.10;8.70;;;;;;;1.24;65.28;100321.08;130196;1268;108800;-73
2022/01/07 13:45:35;;;;;;;35.30;16.40;;;;;;;1.18;65.30;100317.52;130277;1268;108660;-73
2022/01/07 13:48:52;;;;;;;40.20;21.10;;;;;;;1.11;65.01;100307.80;130205;1268;108568;-73
2022/01/07 13:52:01;;;;;;;25.10;12.50;;;;;;;1.04;65.27;100305.10;130201;1268;108823;-73
2022/01/07 13:55:23;;;;;;;22.50;11.00;;;;;;;0.96;65.07;100305.52;130245;1268;108641;-73
2022/01/07 13:58:29;;;;;;;20.30;10.40;;;;;;;0.90;65.02;100300.14;130252;1268;108459;-73
2022/01/07 14:01:34;;;;;;;30.60;15.20;;;;;;;0.85;65.09;100300.77;130158;1268;108808;-73
2022/01/07 14:04:49;;;;;;;26.60;12.40;;;;;;;0.79;65.13;100303.55;130274;1268;107450;-74
2022/01/07 14:07:55;;;;;;;34.10;14.90;;;;;;;0.75;65.04;100305.15;130296;1268;109162;-73
2022/01/07 14:11:13;;;;;;;20.70;10.00;;;;;;;0.70;65.06;100310.54;130255;1268;108936;-73
2022/01/07 14:14:20;;;;;;;24.50;11.10;;;;;;;0.66;65.10;100314.31;130235;1268;108696;-73
2022/01/07 14:17:28;;;;;;;21.60;10.80;;;;;;;0.61;65.13;100313.52;130215;1268;108724;-73